METAR Data
IDs: Format: Raw Decoded Include TAF

Data at: 1630 UTC 21 Sep 2018

KHAO 211553Z AUTO 22007G15KT 180V250 10SM CLR 29/21 A3002 RMK AO2 SLP161 T02890211
KHAO 211453Z AUTO 21007KT 170V260 10SM CLR 29/21 A3003 RMK AO2 SLP164 T02890211 53005
KHAO 211353Z AUTO 23006KT 10SM CLR 27/21 A3002 RMK AO2 SLP160 T02720206
KHAO 211253Z AUTO 21004KT 10SM CLR 26/20 A3002 RMK AO2 SLP158 T02610200
KHAO 211153Z AUTO 22006KT 10SM CLR 25/19 A3002 RMK AO2 SLP159 T02500194 10250 20217 53001
KHAO 211053Z AUTO 22005KT 10SM CLR 25/20 A3001 RMK AO2 SLP157 T02500200
KHAO 210953Z AUTO 23003KT 10SM CLR 25/20 A3001 RMK AO2 SLP157 T02500200
KHAO 210853Z AUTO 23004KT 10SM CLR 25/21 A3001 RMK AO2 SLP157 T02500206 58002
KHAO 210753Z AUTO VRB03KT 10SM CLR 25/21 A3002 RMK AO2 SLP157 T02500206
KHAO 210653Z AUTO 00000KT 10SM CLR 22/21 A3002 RMK AO2 SLP158 T02220206
KHAO 210553Z AUTO 00000KT 10SM CLR 23/21 A3002 RMK AO2 SLP158 T02280206 10278 20228 51003
KHAO 210453Z AUTO 00000KT 10SM CLR 25/21 A3002 RMK AO2 SLP158 T02500211 403330189
KHAO 210353Z AUTO 00000KT 10SM CLR 26/21 A3002 RMK AO2 SLP158 T02560211
KHAO 210253Z AUTO 15003KT 10SM CLR 26/21 A3001 RMK AO2 SLP157 T02560211 58001
KHAO 210153Z AUTO 00000KT 10SM CLR 25/22 A3001 RMK AO2 SLP158 T02500217
KHAO 210053Z AUTO 00000KT 10SM CLR 26/22 A3001 RMK AO2 SLP158 T02610217
KHAO 202353Z AUTO 20003KT 10SM CLR 28/22 A3001 RMK AO2 SLP158 T02830217 10333 20272 55000
KHAO 202253Z AUTO 20003KT 10SM CLR 30/21 A3001 RMK AO2 SLP155 T03000211
KHAO 202153Z AUTO VRB04KT 10SM CLR 31/22 A3001 RMK AO2 SLP156 T03060217
KHAO 202053Z AUTO 18005KT 10SM SCT055 32/21 A3001 RMK AO2 SLP158 T03220211 56017
KHAO 201953Z AUTO 21007KT 10SM CLR 33/21 A3002 RMK AO2 SLP161 T03280211
KHAO 201853Z AUTO VRB06KT 10SM FEW047 33/22 A3004 RMK AO2 SLP167 T03280217
KHAO 201753Z AUTO VRB06KT 10SM CLR 33/22 A3006 RMK AO2 SLP174 60000 T03280222 10328 20206 58012
KHAO 201653Z AUTO 24006KT 10SM CLR 32/22 A3008 RMK AO2 SLP179 T03170217
KHAO 201553Z AUTO 23006KT 10SM CLR 31/22 A3009 RMK AO2 SLP184 T03060222
KHAO 201453Z AUTO VRB04KT 10SM CLR 29/22 A3010 RMK AO2 RAE1355 SLP186 P0000 60000 T02890222 51007
KHAO 201353Z AUTO 00000KT 10SM -RA CLR 26/22 A3009 RMK AO2 RAB46 SLP184 P0000 T02610222
KHAO 201253Z AUTO 10003KT 6SM BR CLR 24/22 A3008 RMK AO2 SLP183 T02390222
KHAO 201153Z AUTO 00000KT 3SM BR CLR 21/20 A3007 RMK AO2 SLP179 T02060200 10211 20189 53010
KHAO 201133Z AUTO 00000KT 3SM BR CLR 20/19 A3007 RMK AO2 T02000189
KHAO 201126Z AUTO 00000KT 2 1/2SM BR CLR 20/19 A3007 RMK AO2 T02000189
KHAO 201101Z AUTO 00000KT 4SM BR CLR 20/19 A3006 RMK AO2 T02000189
KHAO 201053Z AUTO 00000KT 2 1/2SM BR CLR 19/19 A3006 RMK AO2 SLP174 T01940189
KHAO 200953Z AUTO 00000KT 7SM CLR 19/19 A3005 RMK AO2 SLP170 T01940189
KHAO 200853Z AUTO 00000KT 5SM BR CLR 20/19 A3004 RMK AO2 SLP168 T02000189 53009
KHAO 200753Z AUTO 00000KT 7SM CLR 20/19 A3004 RMK AO2 SLP166 T02000194
KHAO 200653Z AUTO 00000KT 7SM CLR 21/20 A3003 RMK AO2 SLP162 T02060200
KHAO 200553Z AUTO 00000KT 9SM CLR 21/19 A3002 RMK AO2 SLP159 T02060194 10244 20206 58003
KHAO 200453Z AUTO 00000KT 8SM CLR 21/20 A3002 RMK AO2 SLP161 T02110200 403220189